Time;durP1;ratioP1;P1;durP2;ratioP2;P2;SDS_P1;SDS_P2;PMS_P1;PMS_P2;Temp;Humidity;BMP_temperature;BMP_pressure;BME280_temperature;BME280_humidity;BME280_pressure;Samples;Min_cycle;Max_cycle;Signal;HPM_P1;HPM_P2
2022/04/30 00:02:16;;;;;;;2.70;2.50;;;24.30;55.70;;;;;;5087209;28;20048;-43
2022/04/30 00:04:46;;;;;;;2.75;2.47;;;24.30;58.20;;;;;;5105569;28;20253;-41
2022/04/30 00:07:14;;;;;;;2.85;2.20;;;24.30;48.80;;;;;;5105552;28;20064;-42
2022/04/30 00:09:42;;;;;;;2.65;2.45;;;24.30;48.90;;;;;;5105143;28;20034;-41
2022/04/30 00:12:09;;;;;;;3.17;2.70;;;24.30;48.90;;;;;;5105645;28;20028;-41
2022/04/30 00:14:35;;;;;;;2.78;2.50;;;24.30;49.10;;;;;;5105563;28;20054;-40
2022/04/30 00:17:02;;;;;;;2.42;2.22;;;24.30;49.50;;;;;;5105645;28;20024;-40
2022/04/30 00:19:29;;;;;;;2.50;2.28;;;24.30;49.80;;;;;;5103348;28;20036;-40
2022/04/30 00:21:55;;;;;;;3.80;2.40;;;24.30;50.10;;;;;;5105184;28;20047;-40
2022/04/30 00:24:22;;;;;;;2.60;2.40;;;24.30;50.30;;;;;;5105519;28;20380;-44
2022/04/30 00:26:49;;;;;;;2.65;2.45;;;24.20;50.90;;;;;;5089242;28;20044;-41
2022/04/30 00:29:15;;;;;;;2.50;2.30;;;24.30;51.10;;;;;;5084545;28;20028;-41
2022/04/30 00:31:41;;;;;;;2.72;2.30;;;24.30;51.80;;;;;;5085178;28;20024;-40
2022/04/30 00:34:07;;;;;;;2.90;2.60;;;24.30;51.80;;;;;;5103282;28;20024;-40
2022/04/30 00:36:33;;;;;;;2.60;2.38;;;24.20;51.70;;;;;;5099068;28;20037;-41
2022/04/30 00:38:59;;;;;;;2.40;2.20;;;24.20;52.10;;;;;;5105169;28;20123;-42
2022/04/30 00:41:25;;;;;;;2.60;2.40;;;24.20;52.70;;;;;;5104827;28;20043;-41
2022/04/30 00:43:53;;;;;;;2.85;2.50;;;24.20;55.30;;;;;;5105330;28;20039;-41
2022/04/30 00:46:23;;;;;;;3.13;2.83;;;24.20;52.90;;;;;;5104638;28;20032;-40
2022/04/30 00:48:50;;;;;;;2.83;2.60;;;24.20;53.40;;;;;;5104687;28;20049;-40
2022/04/30 00:51:18;;;;;;;;;;;24.20;53.30;;;;;;5105074;28;20024;-41
2022/04/30 00:53:46;;;;;;;3.13;2.70;;;24.20;54.10;;;;;;5104367;28;20571;-41
2022/04/30 00:56:14;;;;;;;3.03;2.60;;;24.10;54.30;;;;;;5093652;28;20036;-40
2022/04/30 00:58:47;;;;;;;3.22;2.60;;;24.10;54.10;;;;;;5084632;28;20488;-41
2022/04/30 01:01:13;;;;;;;2.38;2.17;;;24.10;53.90;;;;;;5084063;28;20043;-41
2022/04/30 01:03:39;;;;;;;2.67;2.47;;;24.10;54.00;;;;;;5098817;28;20551;-40
2022/04/30 01:06:06;;;;;;;2.80;2.60;;;24.10;54.70;;;;;;5102568;28;20047;-41
2022/04/30 01:08:32;;;;;;;2.53;2.33;;;24.10;56.90;;;;;;5104399;28;20078;-41
2022/04/30 01:11:03;;;;;;;2.55;2.30;;;24.10;51.30;;;;;;5103938;28;20028;-41
2022/04/30 01:13:32;;;;;;;2.65;2.42;;;24.10;51.40;;;;;;5104519;28;20466;-41
2022/04/30 01:15:58;;;;;;;2.80;2.45;;;24.10;52.50;;;;;;5104506;28;20017;-41
2022/04/30 01:18:27;;;;;;;2.90;2.60;;;24.10;52.60;;;;;;5104004;28;20036;-41
2022/04/30 01:20:59;;;;;;;2.50;2.30;;;24.10;53.00;;;;;;5104246;28;20016;-40
2022/04/30 01:23:26;;;;;;;2.50;2.30;;;24.00;53.00;;;;;;5102763;28;20358;-40
2022/04/30 01:25:52;;;;;;;2.83;2.28;;;24.00;54.50;;;;;;5101374;28;20036;-41
2022/04/30 01:28:19;;;;;;;2.27;2.07;;;24.00;54.10;;;;;;5102861;28;20040;-41
2022/04/30 01:30:45;;;;;;;2.60;2.38;;;24.00;56.20;;;;;;5103361;28;20032;-40
2022/04/30 01:38:43;;;;;;;3.00;2.70;;;;;;;;;;5083570;28;20134;-42
2022/04/30 01:41:09;;;;;;;3.03;2.47;;;;;;;;;;5102515;28;20043;-40
2022/04/30 01:43:36;;;;;;;2.77;2.57;;;;;;;;;;5104031;28;20660;-42
2022/04/30 01:46:02;;;;;;;2.43;2.23;;;;;;;;;;5103510;28;20028;-41
2022/04/30 01:48:28;;;;;;;2.63;2.42;;;;;;;;;;5102350;28;20060;-40
2022/04/30 01:50:55;;;;;;;2.60;2.40;;;;;;;;;;5103548;28;20032;-40
2022/04/30 01:53:21;;;;;;;2.97;2.67;;;;;;;;;;5103791;28;20028;-41
2022/04/30 01:55:47;;;;;;;2.87;2.67;;;;;;;;;;5095910;28;20063;-41
2022/04/30 01:58:14;;;;;;;2.93;2.67;;;;;;;;;;5083447;28;20098;-40
2022/04/30 02:00:41;;;;;;;2.85;2.63;;;;;;;;;;5083072;28;20088;-41
2022/04/30 02:03:08;;;;;;;2.73;2.50;;;;;;;;;;5093073;28;20055;-40
2022/04/30 02:05:34;;;;;;;;;;;;;;;;;;5104072;28;20052;-41
2022/04/30 02:08:03;;;;;;;2.97;2.67;;;;;;;;;;5103364;28;19916;-40
2022/04/30 02:10:31;;;;;;;3.53;2.88;;;;;;;;;;5102587;28;20063;-41
2022/04/30 02:12:57;;;;;;;2.87;2.57;;;;;;;;;;5101887;28;20030;-40
2022/04/30 02:15:24;;;;;;;3.05;2.67;;;;;;;;;;5096462;28;20145;-40
2022/04/30 02:17:50;;;;;;;6.32;3.20;;;;;;;;;;5094611;28;20083;-45
2022/04/30 02:20:25;;;;;;;4.65;2.95;;;;;;;;;;5103042;28;20043;-42
2022/04/30 02:22:52;;;;;;;3.40;3.10;;;;;;;;;;5086373;28;20036;-43
2022/04/30 02:25:19;;;;;;;5.13;2.92;;;;;;;;;;5085255;28;20296;-42
2022/04/30 02:27:45;;;;;;;;;;;;;;;;;;5094535;28;20048;-42
2022/04/30 02:30:14;;;;;;;4.35;3.28;;;;;;;;;;5114699;28;19910;-37
2022/04/30 02:32:45;;;;;;;3.17;2.88;;;;;;;;;;5103994;28;20029;-41
2022/04/30 02:35:14;;;;;;;4.95;3.15;;;;;;;;;;5082952;28;20044;-42
2022/04/30 02:37:44;;;;;;;6.47;3.00;;;;;;;;;;5093972;28;20442;-41
2022/04/30 02:40:13;;;;;;;5.00;3.13;;;;;;;;;;5094968;28;20065;-41
2022/04/30 02:42:41;;;;;;;4.53;3.08;;;;;;;;;;5083353;28;20032;-39
2022/04/30 02:45:09;;;;;;;4.13;3.00;;;;;;;;;;5085451;28;20040;-39
2022/04/30 02:47:38;;;;;;;3.90;3.30;;;;;;;;;;5097310;28;20130;-39
2022/04/30 02:50:06;;;;;;;5.53;3.15;;;;;;;;;;5101790;28;20032;-43
2022/04/30 02:52:32;;;;;;;3.50;2.90;;;;;;;;;;5085575;28;20036;-42
2022/04/30 02:54:58;;;;;;;5.55;3.20;;;;;;;;;;5083623;28;21657;-39
2022/04/30 02:57:25;;;;;;;4.10;2.90;;;;;;;;;;5097124;28;20067;-39
2022/04/30 02:59:54;;;;;;;3.97;3.37;;;;;;;;;;5102198;28;20032;-42
2022/04/30 03:02:21;;;;;;;4.22;3.25;;;;;;;;;;5090554;28;20028;-40
2022/04/30 03:04:51;;;;;;;3.40;3.10;;;;;;;;;;5104424;28;20155;-40
2022/04/30 03:07:18;;;;;;;3.38;3.03;;;;;;;;;;5092082;28;20039;-39
2022/04/30 03:09:44;;;;;;;;;;;;;;;;;;5102389;28;20021;-39
2022/04/30 03:12:11;;;;;;;4.88;3.35;;;;;;;;;;5100864;28;19908;-40
2022/04/30 03:14:37;;;;;;;4.17;3.43;;;;;;;;;;5101796;28;20039;-40
2022/04/30 03:22:33;;;;;;;4.53;3.00;;;;;;;;;;5105555;28;20059;-40
2022/04/30 03:25:00;;;;;;;4.70;3.40;;;;;;;;;;5095803;28;20028;-41
2022/04/30 03:27:26;;;;;;;4.43;3.20;;;;;;;;;;5098281;28;20040;-39
2022/04/30 03:29:52;;;;;;;3.57;3.10;;;;;;;;;;5084973;28;20396;-39
2022/04/30 03:32:24;;;;;;;4.20;3.30;;;;;;;;;;5087288;28;20036;-40
2022/04/30 03:34:51;;;;;;;4.28;3.63;;;;;;;;;;5102201;28;20150;-39
2022/04/30 03:37:18;;;;;;;5.97;3.03;;;;;;;;;;5098267;28;20032;-40
2022/04/30 03:39:44;;;;;;;3.38;3.00;;;;;;;;;;5081108;28;20036;-40
2022/04/30 03:42:10;;;;;;;4.27;3.10;;;;;;;;;;5085220;28;20056;-40
2022/04/30 03:44:38;;;;;;;2.60;2.40;;;;;;;;;;5101794;28;20024;-41
2022/04/30 03:47:04;;;;;;;3.85;3.30;;;;;;;;;;5101403;28;20040;-40
2022/04/30 03:49:30;;;;;;;3.95;3.55;;;;;;;;;;5101328;28;20079;-43
2022/04/30 03:51:57;;;;;;;5.83;3.60;;;;;;;;;;5098572;28;20039;-40
2022/04/30 03:54:23;;;;;;;5.53;3.60;;;;;;;;;;5110169;28;20027;-40
2022/04/30 03:56:49;;;;;;;3.90;3.50;;;;;;;;;;5109228;28;20024;-40
2022/04/30 03:59:16;;;;;;;3.63;3.33;;;;;;;;;;5104974;28;20028;-40
2022/04/30 04:01:42;;;;;;;5.15;3.63;;;;;;;;;;5103313;28;20039;-40
2022/04/30 04:04:09;;;;;;;4.23;3.30;;;;;;;;;;5086638;28;20129;-40
2022/04/30 04:06:36;;;;;;;4.10;3.40;;;;;;;;;;5083517;28;20563;-39
2022/04/30 04:09:02;;;;;;;4.97;3.90;;;;;;;;;;5100303;28;20122;-41
2022/04/30 04:11:29;;;;;;;6.35;3.88;;;;;;;;;;5092698;28;20111;-41
2022/04/30 04:19:26;;;;;;;4.90;3.65;;;;;;;;;;5095295;28;20039;-40
2022/04/30 04:21:52;;;;;;;;;;;;;;;;;;5104144;28;20103;-40
2022/04/30 04:27:03;;;;;;;3.65;3.35;;;;;;;;;;5104321;28;20050;-39
2022/04/30 04:29:30;;;;;;;5.57;3.33;;;;;;;;;;5105339;28;20035;-39
2022/04/30 04:31:56;;;;;;;6.07;3.53;;;;;;;;;;5098959;28;20036;-41
2022/04/30 04:34:22;;;;;;;4.38;3.90;;;;;;;;;;5104696;28;20028;-40
2022/04/30 04:36:49;;;;;;;4.03;3.40;;;;;;;;;;5101398;28;20024;-40
2022/04/30 04:39:16;;;;;;;4.50;3.83;;;;;;;;;;5104404;28;20032;-39
2022/04/30 04:41:42;;;;;;;4.32;3.92;;;;;;;;;;5093111;28;20082;-39
2022/04/30 04:44:09;;;;;;;4.43;3.65;;;;;;;;;;5084325;28;20797;-38
2022/04/30 04:46:36;;;;;;;4.47;3.75;;;;;;;;;;5103528;28;20041;-39
2022/04/30 04:49:02;;;;;;;5.18;4.03;;;;;;;;;;5091131;28;20039;-39
2022/04/30 04:51:29;;;;;;;4.93;3.75;;;;;;;;;;5093356;28;20024;-39
2022/04/30 04:53:55;;;;;;;3.83;3.40;;;;;;;;;;5084537;28;20021;-38
2022/04/30 04:56:22;;;;;;;5.30;3.60;;;;;;;;;;5083914;28;20124;-38
2022/04/30 04:58:48;;;;;;;4.83;3.57;;;;;;;;;;5095055;28;20036;-38
2022/04/30 05:01:14;;;;;;;4.68;3.58;;;;;;;;;;5103926;28;20426;-38
2022/04/30 05:03:41;;;;;;;4.10;3.70;;;;;;;;;;5089497;28;20463;-38
2022/04/30 05:06:07;;;;;;;4.83;3.67;;;;;;;;;;5094207;28;20045;-38
2022/04/30 05:08:33;;;;;;;5.93;3.90;;;;;;;;;;5102811;28;20024;-39
2022/04/30 05:11:00;;;;;;;3.87;3.47;;;;;;;;;;5085548;28;20058;-38
2022/04/30 05:13:26;;;;;;;4.43;3.67;;;;;;;;;;5083578;28;20021;-39
2022/04/30 05:15:52;;;;;;;5.30;3.90;;;;;;;;;;5096649;28;20032;-39
2022/04/30 05:18:20;;;;;;;5.17;3.90;;;;;;;;;;5103920;28;20028;-39
2022/04/30 05:20:46;;;;;;;4.85;3.80;;;;;;;;;;5102687;28;20044;-39
2022/04/30 05:23:12;;;;;;;4.73;3.87;;;;;;;;;;5103825;28;20032;-39
2022/04/30 05:25:40;;;;;;;4.53;3.73;;;;;;;;;;5102875;28;20109;-41
2022/04/30 05:28:07;;;;;;;4.85;4.00;;;;;;;;;;5103924;28;20039;-39
2022/04/30 05:30:34;;;;;;;5.93;4.00;;;;;;;;;;5101317;28;20109;-38
2022/04/30 05:33:00;;;;;;;4.72;4.07;;;;;;;;;;5095400;28;20527;-38
2022/04/30 05:35:26;;;;;;;5.37;3.60;;;;;;;;;;5083060;28;20036;-38
2022/04/30 05:37:53;;;;;;;4.45;3.72;;;;;;;;;;5105763;28;20073;-38
2022/04/30 05:40:19;;;;;;;5.95;3.60;;;;;;;;;;5094186;28;20028;-39
2022/04/30 05:42:46;;;;;;;4.50;3.83;;;;;;;;;;5093415;28;20039;-38
2022/04/30 05:45:12;;;;;;;4.05;3.65;;;;;;;;;;5087342;28;20025;-38
2022/04/30 05:47:38;;;;;;;4.10;3.63;;;;;;;;;;5090148;28;20035;-38
2022/04/30 05:50:06;;;;;;;5.90;3.77;;;;;;;;;;5093758;28;20020;-38
2022/04/30 05:52:33;;;;;;;;;;;;;;;;;;5095787;28;20055;-38
2022/04/30 05:55:03;;;;;;;4.57;3.70;;;;;;;;;;5096049;28;19912;-38
2022/04/30 05:57:30;;;;;;;4.32;3.92;;;;;;;;;;5099174;28;20020;-38
2022/04/30 05:59:57;;;;;;;4.95;3.83;;;;;;;;;;5100382;28;20028;-38
2022/04/30 06:02:23;;;;;;;4.80;4.00;;;;;;;;;;5092873;28;20051;-38
2022/04/30 06:04:49;;;;;;;5.10;4.10;;;;;;;;;;5091761;28;20079;-38
2022/04/30 06:07:16;;;;;;;4.80;3.87;;;;;;;;;;5092996;28;20293;-38
2022/04/30 06:09:42;;;;;;;5.25;4.20;;;;;;;;;;5092792;28;20027;-38
2022/04/30 06:12:09;;;;;;;4.80;3.63;;;;;;;;;;5098632;28;20032;-38
2022/04/30 06:14:36;;;;;;;5.32;3.90;;;;;;;;;;5089464;28;20087;-38
2022/04/30 06:17:02;;;;;;;4.47;4.00;;;;;;;;;;5090025;28;20036;-39
2022/04/30 06:19:28;;;;;;;5.03;4.15;;;;;;;;;;5095089;28;20099;-38
2022/04/30 06:21:55;;;;;;;4.80;3.90;;;;;;;;;;5094458;28;20119;-38
2022/04/30 06:24:21;;;;;;;5.15;4.32;;;;;;;;;;5093544;28;20039;-38
2022/04/30 06:26:47;;;;;;;4.68;4.22;;;;;;;;;;5093637;28;20032;-38
2022/04/30 06:29:14;;;;;;;4.33;3.83;;;;;;;;;;5123200;28;20023;-38
2022/04/30 06:31:40;;;;;;;4.35;3.90;;;;;;;;;;5092172;28;20033;-38
2022/04/30 06:34:06;;;;;;;5.22;4.13;;;;;;;;;;5092160;28;20098;-38
2022/04/30 06:36:33;;;;;;;5.03;3.87;;;;;;;;;;5090422;28;20039;-38
2022/04/30 06:38:59;;;;;;;4.75;4.30;;;;;;;;;;5098978;28;20091;-39
2022/04/30 06:41:26;;;;;;;5.85;3.85;;;;;;;;;;5086559;28;20035;-39
2022/04/30 06:43:52;;;;;;;4.28;3.88;;;;;;;;;;5091806;28;20043;-38
2022/04/30 06:46:19;;;;;;;4.77;3.90;;;;;;;;;;5098932;28;20032;-38
2022/04/30 06:48:45;;;;;;;4.50;3.97;;;;;;;;;;5095971;28;20028;-38
2022/04/30 06:51:12;;;;;;;5.28;4.13;;;;;;;;;;5094447;28;20050;-38
2022/04/30 06:59:11;;;;;;;4.45;4.00;;;;;;;;;;5092458;28;20085;-40
2022/04/30 07:04:06;;;;;;;4.22;3.70;;;;;;;;;;5096449;28;20044;-39
2022/04/30 07:06:33;;;;;;;4.93;4.30;;;;;;;;;;5091255;28;20047;-39
2022/04/30 07:09:00;;;;;;;5.25;4.32;;;;;;;;;;5089876;28;20092;-39
2022/04/30 07:11:26;;;;;;;5.65;4.45;;;;;;;;;;5099502;28;20028;-39
2022/04/30 07:13:53;;;;;;;5.45;4.00;;;;;;;;;;5086718;28;20737;-39
2022/04/30 07:16:19;;;;;;;5.82;4.47;;;;;;;;;;5096661;28;20505;-39
2022/04/30 07:18:46;;;;;;;4.97;4.07;;;;;;;;;;5091585;28;20032;-39
2022/04/30 07:21:12;;;;;;;4.82;3.78;;;;;;;;;;5095512;28;20115;-39
2022/04/30 07:23:38;;;;;;;5.30;4.57;;;;;;;;;;5082146;28;20025;-39
2022/04/30 07:26:05;;;;;;;5.45;4.18;;;;;;;;;;5087422;28;20059;-39
2022/04/30 07:28:35;;;;;;;4.57;3.90;;;;;;;;;;5091712;28;20036;-38
2022/04/30 07:31:04;;;;;;;4.43;3.80;;;;;;;;;;5097653;28;20024;-38
2022/04/30 07:33:30;;;;;;;5.15;3.88;;;;;;;;;;5088455;28;20032;-38
2022/04/30 07:35:57;;;;;;;5.17;4.10;;;;;;;;;;5089365;28;20035;-38
2022/04/30 07:38:23;;;;;;;6.25;4.15;;;;;;;;;;5098676;28;20022;-38
2022/04/30 07:40:50;;;;;;;6.03;4.50;;;;;;;;;;5094115;28;20066;-40
2022/04/30 07:43:16;;;;;;;4.53;4.07;;;;;;;;;;5103951;28;20028;-38
2022/04/30 07:45:42;;;;;;;4.45;3.75;;;;;;;;;;5093948;28;20508;-38
2022/04/30 07:48:09;;;;;;;5.00;4.00;;;;;;;;;;5097529;28;20051;-38
2022/04/30 07:50:36;;;;;;;4.10;3.78;;;;;;;;;;5104663;28;20103;-38
2022/04/30 07:53:06;;;;;;;5.60;4.53;;;;;;;;;;5098991;28;20122;-38
2022/04/30 07:55:32;;;;;;;5.43;4.28;;;;;;;;;;5100944;28;20032;-38
2022/04/30 07:57:59;;;;;;;5.20;4.20;;;;;;;;;;5099566;28;20056;-38
2022/04/30 08:00:25;;;;;;;;;;;;;;;;;;5096399;28;20545;-38
2022/04/30 08:02:52;;;;;;;5.70;4.40;;;;;;;;;;5101226;28;19918;-38
2022/04/30 08:05:18;;;;;;;5.00;4.20;;;;;;;;;;5100444;28;20051;-38
2022/04/30 08:07:44;;;;;;;4.30;3.90;;;;;;;;;;5099045;28;20031;-38
2022/04/30 08:10:11;;;;;;;5.03;4.07;;;;;;;;;;5099835;28;20054;-38
2022/04/30 08:12:37;;;;;;;4.93;4.13;;;;;;;;;;5091673;28;20064;-38
2022/04/30 08:15:04;;;;;;;4.78;4.10;;;;;;;;;;5084412;28;20021;-39
2022/04/30 08:17:30;;;;;;;4.80;4.10;;;;;;;;;;5096936;28;20120;-38
2022/04/30 08:19:56;;;;;;;6.68;4.60;;;;;;;;;;5095021;28;20028;-38
2022/04/30 08:22:23;;;;;;;5.20;4.70;;;;;;;;;;5099949;28;20107;-38
2022/04/30 08:24:49;;;;;;;5.00;4.10;;;;;;;;;;5094784;28;20054;-38
2022/04/30 08:27:16;;;;;;;5.45;4.50;;;;;;;;;;5097334;28;20047;-38
2022/04/30 08:29:42;;;;;;;6.03;4.57;;;;;;;;;;5104274;28;20039;-39
2022/04/30 08:32:09;;;;;;;5.32;4.82;;;;;;;;;;5099289;28;20069;-38
2022/04/30 08:34:35;;;;;;;5.63;4.10;;;;;;;;;;5084166;28;20031;-38
2022/04/30 08:37:01;;;;;;;5.47;4.38;;;;;;;;;;5091918;28;20036;-39
2022/04/30 08:39:28;;;;;;;4.95;4.25;;;;;;;;;;5103113;28;20024;-39
2022/04/30 08:41:54;;;;;;;5.63;4.53;;;;;;;;;;5104036;28;20639;-38
2022/04/30 08:44:20;;;;;;;4.93;4.43;;;;;;;;;;5105076;28;20087;-38
2022/04/30 08:46:47;;;;;;;4.95;4.45;;;;;;;;;;5098890;28;20036;-38
2022/04/30 08:49:13;;;;;;;5.23;4.30;;;;;;;;;;5093173;28;20404;-39
2022/04/30 08:51:39;;;;;;;4.82;4.18;;;;;;;;;;5104125;28;20035;-38
2022/04/30 08:54:06;;;;;;;5.72;4.38;;;;;;;;;;5104241;28;20020;-38
2022/04/30 08:56:35;;;;;;;4.87;4.33;;;;;;;;;;5095085;28;20121;-38
2022/04/30 08:59:10;;;;;;;5.80;4.43;;;;;;;;;;5102166;28;20020;-38
2022/04/30 09:01:46;;;;;;;5.43;4.45;;;;;;;;;;5096285;28;20040;-38
2022/04/30 09:04:12;;;;;;;5.45;4.68;;;;;;;;;;5102188;28;20028;-38
2022/04/30 09:06:45;;;;;;;6.93;4.90;;;;;;;;;;5098269;28;20070;-38
2022/04/30 09:09:12;;;;;;;4.72;4.10;;;;;;;;;;5091081;28;20480;-38
2022/04/30 09:11:39;;;;;;;5.63;4.57;;;;;;;;;;5084194;28;20047;-38
2022/04/30 09:14:06;;;;;;;6.05;5.03;;;;;;;;;;5095214;28;20066;-38
2022/04/30 09:16:32;;;;;;;6.10;4.93;;;;;;;;;;5086509;28;20047;-38
2022/04/30 09:19:02;;;;;;;6.20;4.82;;;;;;;;;;5097484;28;20031;-38
2022/04/30 09:21:28;;;;;;;5.85;4.60;;;;;;;;;;5086366;28;20045;-38
2022/04/30 09:24:03;;;;;;;5.43;4.22;;;;;;;;;;5087944;28;20046;-37
2022/04/30 09:26:39;;;;;;;5.75;4.55;;;;;;;;;;5093578;28;20503;-38
2022/04/30 09:29:19;;;;;;;5.55;4.40;;;;;;;;;;5101525;28;20028;-39
2022/04/30 09:31:49;;;;;;;5.97;4.28;;;;;;;;;;5087760;28;20050;-38
2022/04/30 09:39:46;;;;;;;5.40;4.35;;;;;;;;;;5103074;28;20081;-38
2022/04/30 09:42:12;;;;;;;5.00;4.50;;;;;;;;;;5102157;28;20038;-38
2022/04/30 09:44:39;;;;;;;6.47;4.40;;;;;;;;;;5103298;28;20032;-38
2022/04/30 09:47:08;;;;;;;4.67;4.17;;;;;;;;;;5101925;28;20099;-38
2022/04/30 09:55:06;;;;;;;4.70;4.18;;;;;;;;;;5100788;28;20039;-38
2022/04/30 09:57:32;;;;;;;5.28;4.10;;;;;;;;;;5100324;28;20035;-38
2022/04/30 09:59:58;;;;;;;4.93;4.13;;;;;;;;;;5097452;28;20075;-38
2022/04/30 10:02:25;;;;;;;4.47;3.75;;;;;;;;;;5086915;28;20091;-38
2022/04/30 10:04:51;;;;;;;6.15;4.50;;;;;;;;;;5093618;28;20049;-38
2022/04/30 10:07:18;;;;;;;4.78;4.15;;;;;;;;;;5096900;28;20058;-38
2022/04/30 10:10:18;;;;;;;5.13;4.10;;;;;;;;;;5094592;28;20024;-38
2022/04/30 10:12:54;;;;;;;5.32;3.85;;;;;;;;;;5058422;28;20246;-38
2022/04/30 10:15:23;;;;;;;4.70;3.80;;;;;;;;;;5043101;28;20033;-39
2022/04/30 10:17:53;;;;;;;5.35;3.90;;;;;;;;;;5058341;28;20033;-38
2022/04/30 10:20:33;;;;;;;4.93;3.95;;;;;;;;;;5040590;28;20022;-38
2022/04/30 10:23:02;;;;;;;5.03;3.90;;;;;;;;;;5055032;28;20068;-38
2022/04/30 10:25:32;;;;;;;4.65;3.72;;;;;;;;;;5058827;28;20105;-38
2022/04/30 10:27:58;;;;;;;5.32;3.42;;;;;;;;;;5058951;28;20044;-38
2022/04/30 10:30:27;;;;;;;3.85;3.45;;;;;;;;;;5050653;28;20562;-38
2022/04/30 10:33:06;;;;;;;5.35;3.80;;;;;;;;;;5061142;28;20044;-38
2022/04/30 10:35:33;;;;;;;4.47;3.72;;;;;;;;;;5059090;28;20037;-38
2022/04/30 10:38:09;;;;;;;4.05;3.65;;;;;;;;;;5054357;28;20078;-37
2022/04/30 10:40:57;;;;;;;4.40;3.42;;;;;;;;;;5044473;28;20140;-37
2022/04/30 10:43:26;;;;;;;3.95;3.60;;;;;;;;;;5053653;28;20029;-37
2022/04/30 10:45:53;;;;;;;4.03;3.40;;;;;;;;;;5059227;28;20076;-37
2022/04/30 10:48:19;;;;;;;;;;;;;;;;;;5073624;28;20068;-37
2022/04/30 10:50:47;;;;;;;4.32;3.60;;;;;;;;;;5099878;28;19918;-37
2022/04/30 10:53:14;;;;;;;3.72;3.33;;;;;;;;;;5102413;28;20427;-38
2022/04/30 10:55:40;;;;;;;5.47;3.47;;;;;;;;;;5096436;28;20033;-38
2022/04/30 10:58:06;;;;;;;5.45;3.75;;;;;;;;;;5098436;28;20032;-38
2022/04/30 11:00:33;;;;;;;3.87;3.20;;;;;;;;;;5096026;28;20028;-38
2022/04/30 11:03:09;;;;;;;3.95;3.55;;;;;;;;;;5098906;28;20424;-38
2022/04/30 11:05:35;;;;;;;4.38;3.70;;;;;;;;;;5085703;28;20075;-38
2022/04/30 11:08:03;;;;;;;4.63;3.13;;;;;;;;;;5104803;28;20071;-37
2022/04/30 11:10:30;;;;;;;4.22;3.60;;;;;;;;;;5096960;28;20546;-37
2022/04/30 11:13:06;;;;;;;3.80;3.38;;;;;;;;;;5105247;28;20139;-38
2022/04/30 11:15:32;;;;;;;3.95;3.20;;;;;;;;;;5104872;28;20028;-38
2022/04/30 11:17:59;;;;;;;4.25;3.28;;;;;;;;;;5106079;28;20032;-38
2022/04/30 11:20:26;;;;;;;5.00;3.72;;;;;;;;;;5104673;28;20028;-38
2022/04/30 11:23:01;;;;;;;4.57;3.35;;;;;;;;;;5106163;28;20028;-38
2022/04/30 11:25:35;;;;;;;4.47;3.45;;;;;;;;;;5101827;28;20031;-38
2022/04/30 11:28:02;;;;;;;3.67;2.95;;;;;;;;;;5088595;28;20032;-38
2022/04/30 11:30:28;;;;;;;3.45;3.15;;;;;;;;;;5096757;28;20031;-38
2022/04/30 11:32:54;;;;;;;3.47;3.15;;;;;;;;;;5088306;28;20040;-38
2022/04/30 11:35:21;;;;;;;3.53;3.22;;;;;;;;;;5104335;28;20028;-38
2022/04/30 11:37:47;;;;;;;3.38;3.08;;;;;;;;;;5105908;28;20031;-38
2022/04/30 11:40:13;;;;;;;3.37;3.07;;;;;;;;;;5093407;28;20096;-38
2022/04/30 11:42:40;;;;;;;3.55;3.25;;;;;;;;;;5085418;28;20124;-38
2022/04/30 11:45:06;;;;;;;4.57;3.37;;;;;;;;;;5103159;28;20079;-38
2022/04/30 11:47:33;;;;;;;4.03;3.30;;;;;;;;;;5105738;28;20036;-38
2022/04/30 11:50:06;;;;;;;3.35;2.97;;;;;;;;;;5105200;28;20028;-38
2022/04/30 11:52:32;;;;;;;3.78;3.05;;;;;;;;;;5103402;28;20048;-38
2022/04/30 11:55:00;;;;;;;3.60;3.05;;;;;;;;;;5100155;28;20024;-38
2022/04/30 11:57:26;;;;;;;3.55;3.22;;;;;;;;;;5101055;28;20031;-38
2022/04/30 11:59:55;;;;;;;4.50;3.03;;;;;;;;;;5104814;28;20055;-38
2022/04/30 12:02:21;;;;;;;4.78;3.22;;;;;;;;;;5103697;28;20020;-38
2022/04/30 12:04:50;;;;;;;3.28;2.88;;;;;;;;;;5096484;28;20072;-38
2022/04/30 12:07:16;;;;;;;3.55;3.25;;;;;;;;;;5100092;28;20444;-38
2022/04/30 12:09:47;;;;;;;4.53;3.13;;;;;;;;;;5097722;28;20028;-38
2022/04/30 12:12:17;;;;;;;3.17;2.80;;;;;;;;;;5084605;28;20029;-38
2022/04/30 12:14:47;;;;;;;4.65;3.10;;;;;;;;;;5092499;28;20050;-38
2022/04/30 12:17:13;;;;;;;4.40;3.30;;;;;;;;;;5098418;28;20059;-38
2022/04/30 12:25:16;;;;;;;4.07;3.30;;;;;;;;;;5102040;28;20071;-39
2022/04/30 12:27:43;;;;;;;6.15;2.80;;;;;;;;;;5089816;28;20055;-38
2022/04/30 12:30:14;;;;;;;6.20;3.15;;;;;;;;;;5104358;28;20024;-38
2022/04/30 12:33:07;;;;;;;5.60;3.22;;;;;;;;;;5105097;28;20037;-40
2022/04/30 12:35:38;;;;;;;3.30;2.97;;;;;;;;;;5091723;28;20062;-38
2022/04/30 12:38:13;;;;;;;12.30;3.65;;;;;;;;;;5095863;28;20036;-38
2022/04/30 12:40:41;;;;;;;8.70;3.38;;;;;;;;;;5087907;28;20520;-40
2022/04/30 12:43:07;;;;;;;7.47;3.35;;;;;;;;;;5119601;28;20103;-38
2022/04/30 12:45:34;;;;;;;7.50;3.60;;;;;;;;;;5102378;28;20089;-38
2022/04/30 12:48:00;;;;;;;10.10;3.90;;;;;;;;;;5084376;28;20124;-38
2022/04/30 12:50:27;;;;;;;13.25;3.55;;;;;;;;;;5095718;28;20031;-39
2022/04/30 12:52:54;;;;;;;8.75;3.67;;;;;;;;;;5091643;28;20044;-39
2022/04/30 12:55:20;;;;;;;6.23;3.20;;;;;;;;;;5093241;28;20073;-39
2022/04/30 12:57:47;;;;;;;11.43;3.33;;;;;;;;;;5084704;28;20041;-38
2022/04/30 13:00:13;;;;;;;4.50;3.05;;;;;;;;;;5083940;28;20056;-39
2022/04/30 13:02:40;;;;;;;7.35;3.70;;;;;;;;;;5086224;28;20032;-39
2022/04/30 13:05:13;;;;;;;6.90;3.00;;;;;;;;;;5099665;28;20058;-39
2022/04/30 13:07:40;;;;;;;10.30;3.47;;;;;;;;;;5103891;28;20090;-39
2022/04/30 13:15:38;;;;;;;5.55;3.17;;;;;;;;;;5093881;28;20044;-39
2022/04/30 13:18:04;;;;;;;;;;;;;;;;;;5101335;28;20032;-38
2022/04/30 13:20:30;;;;;;;5.15;3.15;;;;;;;;;;5097065;28;19908;-39
2022/04/30 13:22:57;;;;;;;5.07;3.22;;;;;;;;;;5103820;28;20020;-39
2022/04/30 13:25:23;;;;;;;5.15;3.30;;;;;;;;;;5097682;28;20060;-39
2022/04/30 13:27:50;;;;;;;5.13;3.20;;;;;;;;;;5083292;28;20051;-39
2022/04/30 13:30:18;;;;;;;4.80;3.13;;;;;;;;;;5083723;28;20031;-39
2022/04/30 13:32:47;;;;;;;4.63;3.00;;;;;;;;;;5097946;28;20038;-39
2022/04/30 13:35:17;;;;;;;5.32;3.25;;;;;;;;;;5103957;28;20105;-39
2022/04/30 13:37:45;;;;;;;4.20;2.72;;;;;;;;;;5100913;28;20020;-40
2022/04/30 13:40:12;;;;;;;4.22;3.20;;;;;;;;;;5099673;28;20049;-39
2022/04/30 13:42:38;;;;;;;3.65;3.08;;;;;;;;;;5100165;28;20021;-39
2022/04/30 13:45:05;;;;;;;4.85;2.90;;;;;;;;;;5102503;28;20039;-39
2022/04/30 13:47:31;;;;;;;5.82;2.92;;;;;;;;;;5103734;28;20055;-39
2022/04/30 13:50:01;;;;;;;4.05;2.90;;;;;;;;;;5102894;28;20527;-39
2022/04/30 13:52:27;;;;;;;4.72;2.90;;;;;;;;;;5103346;28;20040;-39
2022/04/30 13:54:53;;;;;;;4.40;2.95;;;;;;;;;;5102772;28;20031;-39
2022/04/30 13:57:20;;;;;;;4.60;2.88;;;;;;;;;;5082974;28;20057;-39
2022/04/30 13:59:47;;;;;;;3.20;2.72;;;;;;;;;;5083248;28;20031;-39
2022/04/30 14:02:13;;;;;;;4.82;2.60;;;;;;;;;;5083131;28;20028;-39
2022/04/30 14:04:40;;;;;;;4.32;3.25;;;;;;;;;;5098002;28;20112;-39
2022/04/30 14:07:07;;;;;;;;;;;;;;;;;;5092862;28;20052;-39
2022/04/30 14:09:33;;;;;;;3.78;2.55;;;;;;;;;;5103309;28;19934;-39
2022/04/30 14:11:59;;;;;;;3.90;3.00;;;;;;;;;;5089540;28;20054;-39
2022/04/30 14:19:56;;;;;;;5.55;2.78;;;;;;;;;;5088860;28;20044;-39
2022/04/30 14:22:23;;;;;;;3.17;2.78;;;;;;;;;;5087523;28;20077;-39
2022/04/30 14:24:49;;;;;;;3.65;2.67;;;;;;;;;;5096747;28;20067;-39
2022/04/30 14:27:16;;;;;;;4.47;2.67;;;;;;;;;;5091954;28;20101;-39
2022/04/30 14:29:46;;;;;;;3.57;2.50;;;;;;;;;;5098266;28;20024;-39
2022/04/30 14:32:12;;;;;;;3.40;2.45;;;;;;;;;;5099173;28;20291;-40
2022/04/30 14:34:42;;;;;;;3.10;2.50;;;;;;;;;;5085350;28;20549;-39
2022/04/30 14:37:09;;;;;;;5.07;2.65;;;;;;;;;;5102260;28;20047;-39
2022/04/30 14:39:35;;;;;;;3.90;2.60;;;;;;;;;;5097353;28;20082;-40
2022/04/30 14:42:02;;;;;;;3.00;2.53;;;;;;;;;;5098810;28;20051;-39
2022/04/30 14:44:30;;;;;;;5.25;2.47;;;;;;;;;;5085840;28;20028;-39
2022/04/30 14:46:56;;;;;;;;;;;;;;;;;;5102684;28;20060;-40
2022/04/30 14:49:23;;;;;;;3.33;2.55;;;;;;;;;;5102848;28;20308;-39
2022/04/30 14:51:49;;;;;;;2.67;2.42;;;;;;;;;;5090315;28;20029;-39
2022/04/30 14:54:15;;;;;;;3.80;2.70;;;;;;;;;;5082598;28;20027;-39
2022/04/30 14:56:43;;;;;;;3.38;2.58;;;;;;;;;;5082855;28;20043;-39
2022/04/30 14:59:10;;;;;;;3.03;2.70;;;;;;;;;;5101568;28;20052;-40
2022/04/30 15:01:36;;;;;;;4.03;2.58;;;;;;;;;;5097221;28;20044;-39
2022/04/30 15:04:02;;;;;;;4.63;2.73;;;;;;;;;;5082076;28;20055;-39
2022/04/30 15:06:29;;;;;;;3.42;2.80;;;;;;;;;;5098194;28;20031;-39
2022/04/30 15:08:58;;;;;;;3.25;2.40;;;;;;;;;;5100323;28;20032;-39
2022/04/30 15:11:28;;;;;;;2.95;2.33;;;;;;;;;;5090921;28;20043;-39
2022/04/30 15:13:54;;;;;;;5.07;2.40;;;;;;;;;;5088933;28;20122;-40
2022/04/30 15:16:21;;;;;;;3.08;2.50;;;;;;;;;;5095203;28;20021;-39
2022/04/30 15:18:47;;;;;;;3.25;2.60;;;;;;;;;;5100750;28;20374;-40
2022/04/30 15:21:14;;;;;;;2.67;2.30;;;;;;;;;;5100614;28;20119;-39
2022/04/30 15:23:40;;;;;;;1.98;1.77;;;;;;;;;;5092777;28;20032;-40
2022/04/30 15:26:06;;;;;;;5.30;2.42;;;;;;;;;;5089908;28;20035;-40
2022/04/30 15:28:32;;;;;;;3.75;2.53;;;;;;;;;;5095190;28;20061;-39
2022/04/30 15:31:00;;;;;;;2.95;2.45;;;;;;;;;;5099331;28;20029;-39